Time,TemperatureF,DewpointF,PressureIn,WindDirection,WindDirectionDegrees,WindSpeedMPH,WindSpeedGustMPH,Humidity,HourlyPrecipIn,Conditions,Clouds,dailyrainin,SolarRadiationWatts/m^2,SoftwareType,DateUTC
2013-01-05 00:00:00,65.8,64.3,30.23,NE,45,3.0,10.0,95,0.00,,---,0.00,0.00,VWS V14.01,2013-01-05 05:00:00,
2013-01-05 00:03:00,65.7,64.0,30.23,NNW,340,1.0,7.0,95,0.00,,,0.00,0,weatherlink.com 1.10,2013-01-05 05:03:00,
2013-01-05 00:18:00,65.8,64.0,30.23,West,260,3.0,7.0,95,0.00,,,0.00,0,weatherlink.com 1.10,2013-01-05 05:18:00,
2013-01-05 00:30:00,65.8,64.0,30.23,WNW,292,3.0,7.0,94,0.00,,---,0.00,0.00,VWS V14.01,2013-01-05 05:30:00,
2013-01-05 00:33:00,65.8,64.0,30.23,WNW,295,2.0,7.0,95,0.00,,,0.00,0,weatherlink.com 1.10,2013-01-05 05:33:00,
2013-01-05 00:48:00,65.7,64.0,30.22,WNW,282,3.0,5.0,95,0.00,,,0.00,0,weatherlink.com 1.10,2013-01-05 05:48:00,
2013-01-05 01:00:00,65.6,64.1,30.23,NE,45,2.0,8.0,95,0.00,,---,0.00,0.00,VWS V14.01,2013-01-05 06:00:00,
2013-01-05 01:03:00,65.5,64.0,30.23,NW,317,2.0,8.0,95,0.00,,,0.00,0,weatherlink.com 1.10,2013-01-05 06:03:00,
2013-01-05 01:18:00,65.4,64.0,30.23,NE,41,2.0,8.0,95,0.00,,,0.00,0,weatherlink.com 1.10,2013-01-05 06:18:00,
2013-01-05 01:30:00,65.3,63.5,30.22,WNW,292,3.0,8.0,94,0.00,,---,0.00,0.00,VWS V14.01,2013-01-05 06:30:00,
2013-01-05 01:33:00,65.3,64.0,30.22,WNW,292,1.0,8.0,94,0.00,,,0.00,0,weatherlink.com 1.10,2013-01-05 06:33:00,
2013-01-05 01:48:00,65.2,64.0,30.22,NW,306,3.0,7.0,94,0.00,,,0.00,0,weatherlink.com 1.10,2013-01-05 06:48:00,
2013-01-05 02:00:00,65.0,63.2,30.23,West,270,3.0,9.0,94,0.00,,---,0.00,0.00,VWS V14.01,2013-01-05 07:00:00,
2013-01-05 02:04:00,64.9,63.0,30.22,NW,317,5.0,8.0,94,0.00,,,0.00,0,weatherlink.com 1.10,2013-01-05 07:04:00,
2013-01-05 02:19:00,64.6,63.0,30.22,North,5,2.0,7.0,94,0.00,,,0.00,0,weatherlink.com 1.10,2013-01-05 07:19:00,
2013-01-05 02:30:00,64.5,62.7,30.22,West,270,3.0,12.0,94,0.00,,---,0.00,0.00,VWS V14.01,2013-01-05 07:30:00,
2013-01-05 02:34:00,64.5,63.0,30.22,NE,56,2.0,6.0,94,0.00,,,0.00,0,weatherlink.com 1.10,2013-01-05 07:34:00,
2013-01-05 02:49:00,64.6,63.0,30.22,NW,306,2.0,7.0,94,0.00,,,0.00,0,weatherlink.com 1.10,2013-01-05 07:49:00,
2013-01-05 03:00:00,64.6,62.8,30.22,West,270,3.0,9.0,94,0.00,,---,0.00,0.00,VWS V14.01,2013-01-05 08:00:00,
2013-01-05 03:04:00,64.6,63.0,30.22,NE,44,3.0,7.0,94,0.00,,,0.00,0,weatherlink.com 1.10,2013-01-05 08:04:00,
2013-01-05 03:19:00,64.6,63.0,30.22,NNE,17,4.0,8.0,94,0.00,,,0.00,0,weatherlink.com 1.10,2013-01-05 08:19:00,
2013-01-05 03:30:00,64.5,62.7,30.22,WNW,292,4.0,9.0,94,0.00,,---,0.00,0.00,VWS V14.01,2013-01-05 08:30:00,
2013-01-05 03:34:00,64.5,63.0,30.22,South,185,1.0,9.0,94,0.00,,,0.00,0,weatherlink.com 1.10,2013-01-05 08:34:00,
2013-01-05 03:49:00,64.4,62.0,30.21,East,81,1.0,9.0,93,0.00,,,0.00,0,weatherlink.com 1.10,2013-01-05 08:49:00,
2013-01-05 04:00:00,64.3,62.2,30.21,West,270,3.0,9.0,93,0.00,,---,0.00,0.00,VWS V14.01,2013-01-05 09:00:00,
2013-01-05 04:04:00,64.2,62.0,30.21,NNW,336,8.0,9.0,93,0.00,,,0.00,0,weatherlink.com 1.10,2013-01-05 09:04:00,
2013-01-05 04:19:00,64.1,62.0,30.21,SW,217,3.0,9.0,93,0.00,,,0.00,0,weatherlink.com 1.10,2013-01-05 09:19:00,
2013-01-05 04:30:00,64.1,62.0,30.21,WNW,292,3.0,10.0,93,0.00,,---,0.00,0.00,VWS V14.01,2013-01-05 09:30:00,
2013-01-05 04:34:00,64.1,62.0,30.21,WNW,287,1.0,8.0,93,0.00,,,0.00,0,weatherlink.com 1.10,2013-01-05 09:34:00,
2013-01-05 04:49:00,64.3,62.0,30.22,WNW,298,2.0,5.0,93,0.00,,,0.00,0,weatherlink.com 1.10,2013-01-05 09:49:00,
2013-01-05 05:00:00,64.5,62.7,30.21,North,0,2.0,8.0,94,0.00,,---,0.00,0.00,VWS V14.01,2013-01-05 10:00:00,
2013-01-05 05:04:00,64.5,63.0,30.21,NNW,327,2.0,7.0,94,0.00,,,0.00,0,weatherlink.com 1.10,2013-01-05 10:04:00,
2013-01-05 05:19:00,64.9,63.0,30.22,West,270,3.0,7.0,94,0.00,,,0.00,0,weatherlink.com 1.10,2013-01-05 10:19:00,
2013-01-05 05:30:00,65.0,63.2,30.22,North,0,3.0,7.0,94,0.00,,---,0.00,0.00,VWS V14.01,2013-01-05 10:30:00,
2013-01-05 05:34:00,65.1,63.0,30.22,South,178,3.0,7.0,94,0.00,,,0.00,0,weatherlink.com 1.10,2013-01-05 10:34:00,
2013-01-05 05:49:00,65.3,64.0,30.23,NNW,342,2.0,8.0,94,0.00,,,0.00,0,weatherlink.com 1.10,2013-01-05 10:49:00,
2013-01-05 06:00:00,65.2,63.1,30.23,NE,45,3.0,8.0,93,0.00,,---,0.00,0.00,VWS V14.01,2013-01-05 11:00:00,
2013-01-05 06:04:00,65.2,63.0,30.23,WNW,293,3.0,8.0,93,0.00,,,0.00,0,weatherlink.com 1.10,2013-01-05 11:04:00,
2013-01-05 06:19:00,65.2,63.0,30.23,ENE,67,3.0,9.0,93,0.00,,,0.00,0,weatherlink.com 1.10,2013-01-05 11:19:00,
2013-01-05 06:30:00,65.2,63.1,30.23,NE,45,3.0,10.0,93,0.00,,---,0.00,0.00,VWS V14.01,2013-01-05 11:30:00,
2013-01-05 06:34:00,65.2,63.0,30.23,ENE,57,7.0,7.0,93,0.00,,,0.00,0,weatherlink.com 1.10,2013-01-05 11:34:00,
2013-01-05 06:49:00,65.3,63.0,30.23,ENE,64,4.0,9.0,93,0.00,,,0.00,0,weatherlink.com 1.10,2013-01-05 11:49:00,
2013-01-05 07:04:00,65.3,63.0,30.24,NNE,27,4.0,8.0,92,0.00,,,0.00,0,weatherlink.com 1.10,2013-01-05 12:04:00,
2013-01-05 07:19:00,65.2,63.0,30.25,WNW,302,2.0,8.0,91,0.00,,,0.00,12,weatherlink.com 1.10,2013-01-05 12:19:00,
2013-01-05 07:28:00,65.2,63.1,30.23,NE,45,3.0,10.0,93,0.00,,---,0.00,0.00,VWS V14.01,2013-01-05 12:28:00,
2013-01-05 07:30:00,65.2,62.2,30.25,West,271,2.0,4.0,90,0.00,,---,0.00,19.00,VWS V14.01,2013-01-05 12:30:00,
2013-01-05 07:33:00,65.2,62.2,30.25,WSW,245,3.0,4.0,90,0.00,,---,0.00,23.00,VWS V14.01,2013-01-05 12:33:00,
2013-01-05 07:38:00,65.2,62.2,30.25,West,281,3.0,6.0,90,0.00,,---,0.00,33.00,VWS V14.01,2013-01-05 12:38:00,
2013-01-05 07:43:00,65.3,62.3,30.25,SW,227,3.0,6.0,90,0.00,,---,0.00,47.00,VWS V14.01,2013-01-05 12:43:00,
2013-01-05 07:48:00,65.4,62.7,30.25,West,260,3.0,6.0,91,0.00,,---,0.00,62.00,VWS V14.01,2013-01-05 12:48:00,
2013-01-05 07:53:00,65.6,62.6,30.25,NE,49,5.0,6.0,90,0.00,,---,0.00,81.00,VWS V14.01,2013-01-05 12:53:00,
2013-01-05 07:58:00,65.8,62.8,30.25,ESE,107,3.0,7.0,90,0.00,,---,0.00,100.00,VWS V14.01,2013-01-05 12:58:00,
2013-01-05 08:00:00,65.9,62.6,30.25,West,269,3.0,7.0,89,0.00,,---,0.00,100.00,VWS V14.01,2013-01-05 13:00:00,
2013-01-05 08:03:00,66.0,62.7,30.25,NE,49,4.0,6.0,89,0.00,,---,0.00,104.00,VWS V14.01,2013-01-05 13:03:00,
2013-01-05 08:08:00,66.7,63.0,30.25,NNE,16,4.0,8.0,88,0.00,,---,0.00,121.00,VWS V14.01,2013-01-05 13:08:00,
2013-01-05 08:13:00,67.0,63.0,30.25,ESE,117,2.0,9.0,87,0.00,,---,0.00,141.00,VWS V14.01,2013-01-05 13:13:00,
2013-01-05 08:18:00,67.3,63.3,30.26,NE,55,3.0,9.0,87,0.00,,---,0.00,155.00,VWS V14.01,2013-01-05 13:18:00,
2013-01-05 08:23:00,67.6,63.3,30.26,NE,38,2.0,9.0,86,0.00,,---,0.00,171.00,VWS V14.01,2013-01-05 13:23:00,
2013-01-05 08:28:00,68.1,63.8,30.26,NNE,20,4.0,9.0,86,0.00,,---,0.00,183.00,VWS V14.01,2013-01-05 13:28:00,
2013-01-05 08:30:00,68.3,64.0,30.26,NE,42,5.0,9.0,86,0.00,,---,0.00,192.00,VWS V14.01,2013-01-05 13:30:00,
2013-01-05 08:33:00,68.6,63.9,30.26,ENE,73,4.0,7.0,85,0.00,,---,0.00,199.00,VWS V14.01,2013-01-05 13:33:00,
2013-01-05 08:38:00,69.1,64.1,30.26,SSW,208,4.0,7.0,84,0.00,,---,0.00,216.00,VWS V14.01,2013-01-05 13:38:00,
2013-01-05 08:43:00,69.5,64.5,30.26,NE,45,4.0,7.0,84,0.00,,---,0.00,230.00,VWS V14.01,2013-01-05 13:43:00,
2013-01-05 08:48:00,70.0,64.9,30.26,NNW,329,7.0,7.0,84,0.00,,---,0.00,248.00,VWS V14.01,2013-01-05 13:48:00,
2013-01-05 08:53:00,70.4,64.3,30.26,East,99,3.0,7.0,81,0.00,,---,0.00,260.00,VWS V14.01,2013-01-05 13:53:00,
2013-01-05 08:58:00,70.7,64.6,30.25,ESE,105,4.0,7.0,81,0.00,,---,0.00,276.00,VWS V14.01,2013-01-05 13:58:00,
2013-01-05 09:00:00,70.8,64.7,30.25,ESE,111,3.0,7.0,81,0.00,,---,0.00,281.00,VWS V14.01,2013-01-05 14:00:00,
2013-01-05 09:03:00,71.0,64.5,30.26,East,98,5.0,7.0,80,0.00,,---,0.00,294.00,VWS V14.01,2013-01-05 14:03:00,
2013-01-05 09:08:00,71.4,64.9,30.26,NNE,16,3.0,7.0,80,0.00,,---,0.00,308.00,VWS V14.01,2013-01-05 14:08:00,
2013-01-05 09:13:00,71.6,64.8,30.26,NNE,32,4.0,7.0,79,0.00,,---,0.00,322.00,VWS V14.01,2013-01-05 14:13:00,
2013-01-05 09:18:00,72.0,65.1,30.26,ENE,71,2.0,7.0,79,0.00,,---,0.00,339.00,VWS V14.01,2013-01-05 14:18:00,
2013-01-05 09:23:00,72.5,64.9,30.26,NNW,339,3.0,10.0,77,0.00,,---,0.00,353.00,VWS V14.01,2013-01-05 14:23:00,
2013-01-05 09:28:00,72.6,65.0,30.26,ESE,103,3.0,10.0,77,0.00,,---,0.00,376.00,VWS V14.01,2013-01-05 14:28:00,
2013-01-05 09:30:00,72.6,64.6,30.26,NE,52,5.0,10.0,76,0.00,,---,0.00,367.00,VWS V14.01,2013-01-05 14:30:00,
2013-01-05 09:33:00,72.7,65.1,30.26,SE,129,3.0,7.0,77,0.00,,---,0.00,378.00,VWS V14.01,2013-01-05 14:33:00,
2013-01-05 09:38:00,72.9,64.9,30.26,North,360,5.0,8.0,76,0.00,,---,0.00,394.00,VWS V14.01,2013-01-05 14:38:00,
2013-01-05 09:43:00,73.3,64.9,30.26,East,90,2.0,8.0,75,0.00,,---,0.00,404.00,VWS V14.01,2013-01-05 14:43:00,
2013-01-05 09:48:00,73.5,65.1,30.26,ESE,114,2.0,9.0,75,0.00,,---,0.00,420.00,VWS V14.01,2013-01-05 14:48:00,
2013-01-05 09:53:00,73.5,65.1,30.26,NNE,17,4.0,9.0,75,0.00,,---,0.00,434.00,VWS V14.01,2013-01-05 14:53:00,
2013-01-05 09:58:00,73.7,65.3,30.26,NE,51,3.0,9.0,75,0.00,,---,0.00,446.00,VWS V14.01,2013-01-05 14:58:00,
2013-01-05 10:00:00,73.9,65.1,30.26,ENE,63,4.0,9.0,74,0.00,,---,0.00,454.00,VWS V14.01,2013-01-05 15:00:00,
2013-01-05 10:03:00,74.2,65.0,30.26,NW,321,5.0,6.0,73,0.00,,---,0.00,461.00,VWS V14.01,2013-01-05 15:03:00,
2013-01-05 10:08:00,74.3,65.5,30.26,NE,44,3.0,7.0,74,0.00,,---,0.00,475.00,VWS V14.01,2013-01-05 15:08:00,
2013-01-05 10:13:00,74.5,65.7,30.26,ENE,66,3.0,7.0,74,0.00,,---,0.00,487.00,VWS V14.01,2013-01-05 15:13:00,
2013-01-05 10:18:00,74.7,65.5,30.26,SW,225,3.0,7.0,73,0.00,,---,0.00,499.00,VWS V14.01,2013-01-05 15:18:00,
2013-01-05 10:23:00,74.7,65.5,30.26,ESE,123,4.0,8.0,73,0.00,,---,0.00,508.00,VWS V14.01,2013-01-05 15:23:00,
2013-01-05 10:28:00,75.0,65.8,30.26,ESE,110,5.0,8.0,73,0.00,,---,0.00,520.00,VWS V14.01,2013-01-05 15:28:00,
2013-01-05 10:30:00,75.1,65.9,30.26,West,261,5.0,8.0,73,0.00,,---,0.00,524.00,VWS V14.01,2013-01-05 15:30:00,
2013-01-05 10:33:00,75.2,66.0,30.26,East,79,5.0,8.0,73,0.00,,---,0.00,531.00,VWS V14.01,2013-01-05 15:33:00,
2013-01-05 10:38:00,75.5,66.2,30.26,ENE,78,3.0,8.0,73,0.00,,---,0.00,540.00,VWS V14.01,2013-01-05 15:38:00,
2013-01-05 10:43:00,75.6,65.9,30.26,East,100,2.0,8.0,72,0.00,,---,0.00,548.00,VWS V14.01,2013-01-05 15:43:00,
2013-01-05 10:48:00,75.6,66.3,30.26,East,90,5.0,8.0,73,0.00,,---,0.00,605.00,VWS V14.01,2013-01-05 15:48:00,
2013-01-05 10:53:00,75.9,66.2,30.26,NW,310,4.0,8.0,72,0.00,,---,0.00,694.00,VWS V14.01,2013-01-05 15:53:00,
2013-01-05 10:58:00,75.9,66.6,30.25,SSE,155,3.0,8.0,73,0.00,,---,0.00,628.00,VWS V14.01,2013-01-05 15:58:00,
2013-01-05 11:03:00,76.2,66.9,30.25,NNE,13,2.0,5.0,73,0.00,,---,0.00,633.00,VWS V14.01,2013-01-05 16:03:00,
2013-01-05 11:08:00,76.2,66.5,30.25,NNE,30,3.0,7.0,72,0.00,,---,0.00,722.00,VWS V14.01,2013-01-05 16:08:00,
2013-01-05 11:13:00,76.4,67.1,30.25,East,97,3.0,7.0,73,0.00,,---,0.00,338.00,VWS V14.01,2013-01-05 16:13:00,
2013-01-05 11:18:00,76.9,67.2,30.25,North,5,3.0,7.0,72,0.00,,---,0.00,687.00,VWS V14.01,2013-01-05 16:18:00,
2013-01-05 11:23:00,76.9,67.2,30.25,NNW,348,2.0,7.0,72,0.00,,---,0.00,251.00,VWS V14.01,2013-01-05 16:23:00,
2013-01-05 11:28:00,76.8,67.1,30.25,NE,53,4.0,7.0,72,0.00,,---,0.00,336.00,VWS V14.01,2013-01-05 16:28:00,
2013-01-05 11:33:00,76.7,67.4,30.25,SW,219,2.0,4.0,73,0.00,,---,0.00,262.00,VWS V14.01,2013-01-05 16:33:00,
2013-01-05 11:38:00,77.2,68.3,30.25,NE,35,5.0,6.0,74,0.00,,---,0.00,710.00,VWS V14.01,2013-01-05 16:38:00,
2013-01-05 11:43:00,77.8,68.1,30.25,NNE,23,2.0,6.0,72,0.00,,---,0.00,366.00,VWS V14.01,2013-01-05 16:43:00,
2013-01-05 11:48:00,78.0,68.7,30.24,NNE,25,4.0,7.0,73,0.00,,---,0.00,649.00,VWS V14.01,2013-01-05 16:48:00,
2013-01-05 11:53:00,78.1,67.9,30.24,NE,38,2.0,7.0,71,0.00,,---,0.00,645.00,VWS V14.01,2013-01-05 16:53:00,
2013-01-05 11:58:00,78.4,68.6,30.24,North,5,4.0,7.0,72,0.00,,---,0.00,652.00,VWS V14.01,2013-01-05 16:58:00,
2013-01-05 12:03:00,78.5,68.7,30.24,NE,42,2.0,5.0,72,0.00,,---,0.00,652.00,VWS V14.01,2013-01-05 17:03:00,
2013-01-05 12:08:00,79.1,68.9,30.23,NE,42,3.0,5.0,71,0.00,,---,0.00,656.00,VWS V14.01,2013-01-05 17:08:00,
2013-01-05 12:13:00,79.1,69.3,30.23,NNE,29,4.0,6.0,72,0.00,,---,0.00,659.00,VWS V14.01,2013-01-05 17:13:00,
2013-01-05 12:18:00,79.0,69.6,30.22,NNW,346,5.0,6.0,73,0.00,,---,0.00,663.00,VWS V14.01,2013-01-05 17:18:00,
2013-01-05 12:23:00,79.0,70.0,30.22,NE,47,5.0,6.0,74,0.00,,---,0.00,663.00,VWS V14.01,2013-01-05 17:23:00,
2013-01-05 12:28:00,79.0,70.0,30.22,NNW,341,4.0,6.0,74,0.00,,---,0.00,663.00,VWS V14.01,2013-01-05 17:28:00,
2013-01-05 12:46:00,77.8,70.0,30.21,NW,322,4.0,5.0,77,0.00,,,0.00,663,weatherlink.com 1.10,2013-01-05 17:46:00,
2013-01-05 13:00:00,78.2,70.0,30.20,NW,315,3.0,7.0,76,0.00,,---,0.00,661.00,VWS V14.01,2013-01-05 18:00:00,
2013-01-05 13:01:00,78.4,71.0,30.20,NW,321,3.0,6.0,77,0.00,,,0.00,756,weatherlink.com 1.10,2013-01-05 18:01:00,
2013-01-05 13:18:00,79.2,70.0,30.19,NW,326,3.0,6.0,74,0.00,,,0.00,287,weatherlink.com 1.10,2013-01-05 18:18:00,
2013-01-05 13:30:00,77.9,70.1,30.19,NE,45,3.0,7.0,77,0.00,,---,0.00,408.00,VWS V14.01,2013-01-05 18:30:00,
2013-01-05 13:31:00,78.1,70.0,30.19,NNE,15,4.0,6.0,77,0.00,,,0.00,336,weatherlink.com 1.10,2013-01-05 18:31:00,
2013-01-05 13:46:00,78.5,70.0,30.19,NNE,31,2.0,5.0,75,0.00,,,0.00,239,weatherlink.com 1.10,2013-01-05 18:46:00,
2013-01-05 14:00:00,77.8,70.4,30.18,NE,45,3.0,5.0,78,0.00,,---,0.00,340.00,VWS V14.01,2013-01-05 19:00:00,
2013-01-05 14:01:00,77.8,70.0,30.18,NNW,329,3.0,4.0,77,0.00,,,0.00,199,weatherlink.com 1.10,2013-01-05 19:01:00,
2013-01-05 14:16:00,78.3,71.0,30.18,NNE,22,0.0,3.0,77,0.00,,,0.00,353,weatherlink.com 1.10,2013-01-05 19:16:00,
2013-01-05 14:30:00,79.4,70.4,30.18,NNE,22,1.0,4.0,74,0.00,,---,0.00,312.00,VWS V14.01,2013-01-05 19:30:00,
2013-01-05 14:31:00,79.2,70.0,30.18,North,10,2.0,2.0,74,0.00,,,0.00,234,weatherlink.com 1.10,2013-01-05 19:31:00,
2013-01-05 14:46:00,81.2,71.0,30.18,WNW,299,2.0,3.0,71,0.00,,,0.00,647,weatherlink.com 1.10,2013-01-05 19:46:00,
2013-01-05 15:00:00,78.1,69.9,30.18,NW,315,1.0,3.0,76,0.00,,---,0.00,336.00,VWS V14.01,2013-01-05 20:00:00,
2013-01-05 15:01:00,77.8,70.0,30.18,SW,234,3.0,3.0,77,0.00,,,0.00,167,weatherlink.com 1.10,2013-01-05 20:01:00,
2013-01-05 15:16:00,77.3,71.0,30.18,SSW,213,1.0,4.0,80,0.00,,,0.00,545,weatherlink.com 1.10,2013-01-05 20:16:00,
2013-01-05 15:30:00,79.6,70.6,30.18,WSW,248,2.0,4.0,74,0.00,,---,0.00,367.00,VWS V14.01,2013-01-05 20:30:00,
2013-01-05 15:31:00,79.9,71.0,30.18,WSW,244,3.0,4.0,74,0.00,,,0.00,457,weatherlink.com 1.10,2013-01-05 20:31:00,
2013-01-05 15:46:00,80.0,70.0,30.18,South,182,2.0,3.0,72,0.00,,,0.00,374,weatherlink.com 1.10,2013-01-05 20:46:00,
2013-01-05 16:00:00,79.4,70.4,30.18,WSW,248,2.0,4.0,74,0.00,,---,0.00,370.00,VWS V14.01,2013-01-05 21:00:00,
2013-01-05 16:01:00,79.4,70.0,30.18,South,184,2.0,3.0,74,0.00,,,0.00,334,weatherlink.com 1.10,2013-01-05 21:01:00,
2013-01-05 16:16:00,77.7,70.0,30.18,SW,236,3.0,4.0,77,0.00,,,0.00,79,weatherlink.com 1.10,2013-01-05 21:16:00,
2013-01-05 16:30:00,75.0,69.5,30.18,WSW,248,2.0,4.0,83,0.00,,---,0.00,142.00,VWS V14.01,2013-01-05 21:30:00,
2013-01-05 16:31:00,74.7,69.0,30.18,WSW,242,3.0,4.0,83,0.00,,,0.00,44,weatherlink.com 1.10,2013-01-05 21:31:00,
2013-01-05 16:46:00,73.6,69.0,30.18,WSW,239,3.0,4.0,86,0.00,,,0.00,46,weatherlink.com 1.10,2013-01-05 21:46:00,
2013-01-05 17:00:00,73.2,69.4,30.18,WSW,248,3.0,5.0,88,0.00,,---,0.00,46.00,VWS V14.01,2013-01-05 22:00:00,
2013-01-05 17:01:00,73.2,70.0,30.18,SW,227,1.0,4.0,88,0.00,,,0.00,23,weatherlink.com 1.10,2013-01-05 22:01:00,
2013-01-05 17:16:00,72.8,69.0,30.18,SSE,164,1.0,3.0,88,0.00,,,0.00,14,weatherlink.com 1.10,2013-01-05 22:16:00,
2013-01-05 17:30:00,72.4,69.0,30.18,South,180,1.0,3.0,89,0.00,,---,0.00,15.00,VWS V14.01,2013-01-05 22:30:00,
2013-01-05 17:31:00,72.4,69.0,30.19,South,186,1.0,3.0,89,0.00,,,0.00,0,weatherlink.com 1.10,2013-01-05 22:31:00,
2013-01-05 17:46:00,72.3,69.0,30.19,West,269,5.0,5.0,89,0.00,,,0.00,0,weatherlink.com 1.10,2013-01-05 22:46:00,
2013-01-05 18:00:00,72.2,69.1,30.19,WSW,248,2.0,5.0,90,0.00,,---,0.00,0.00,VWS V14.01,2013-01-05 23:00:00,
2013-01-05 18:01:00,72.2,69.0,30.19,West,261,3.0,5.0,90,0.00,,,0.00,0,weatherlink.com 1.10,2013-01-05 23:01:00,
2013-01-05 18:16:00,71.9,69.0,30.20,WSW,237,2.0,5.0,91,0.00,,,0.00,0,weatherlink.com 1.10,2013-01-05 23:16:00,
2013-01-05 18:30:00,71.8,69.0,30.20,WSW,248,3.0,6.0,91,0.00,,---,0.00,0.00,VWS V14.01,2013-01-05 23:30:00,
2013-01-05 18:31:00,71.8,69.0,30.20,West,266,3.0,6.0,91,0.00,,,0.00,0,weatherlink.com 1.10,2013-01-05 23:31:00,
2013-01-05 18:46:00,71.7,69.0,30.20,West,278,3.0,5.0,91,0.00,,,0.00,0,weatherlink.com 1.10,2013-01-05 23:46:00,
2013-01-05 19:00:00,71.6,68.8,30.21,WSW,248,3.0,6.0,91,0.00,,---,0.00,0.00,VWS V14.01,2013-01-06 00:00:00,
2013-01-05 19:01:00,71.6,69.0,30.21,West,275,2.0,6.0,92,0.00,,,0.00,0,weatherlink.com 1.10,2013-01-06 00:01:00,
2013-01-05 19:18:00,71.5,69.0,30.21,West,273,4.0,5.0,92,0.00,,,0.00,0,weatherlink.com 1.10,2013-01-06 00:18:00,
2013-01-05 19:30:00,71.4,69.0,30.21,WSW,248,3.0,7.0,92,0.00,,---,0.00,0.00,VWS V14.01,2013-01-06 00:30:00,
2013-01-05 19:31:00,71.3,69.0,30.21,SW,229,3.0,5.0,92,0.00,,,0.00,0,weatherlink.com 1.10,2013-01-06 00:31:00,
2013-01-05 19:46:00,71.2,69.0,30.22,West,278,2.0,5.0,92,0.00,,,0.00,0,weatherlink.com 1.10,2013-01-06 00:46:00,
2013-01-05 20:00:00,71.2,68.8,30.22,WSW,248,3.0,5.0,92,0.00,,---,0.00,0.00,VWS V14.01,2013-01-06 01:00:00,
2013-01-05 20:01:00,71.3,69.0,30.22,West,261,3.0,5.0,92,0.00,,,0.00,0,weatherlink.com 1.10,2013-01-06 01:01:00,
2013-01-05 20:16:00,71.4,69.0,30.22,WSW,252,2.0,5.0,93,0.00,,,0.00,0,weatherlink.com 1.10,2013-01-06 01:16:00,
2013-01-05 20:30:00,71.3,69.2,30.22,WSW,248,3.0,5.0,93,0.00,,---,0.00,0.00,VWS V14.01,2013-01-06 01:30:00,
2013-01-05 20:31:00,71.3,69.0,30.22,WSW,247,2.0,4.0,93,0.00,,,0.00,0,weatherlink.com 1.10,2013-01-06 01:31:00,
2013-01-05 20:46:00,71.4,69.0,30.22,WSW,247,2.0,3.0,93,0.00,,,0.00,0,weatherlink.com 1.10,2013-01-06 01:46:00,
2013-01-05 21:00:00,71.4,69.6,30.23,WSW,248,2.0,4.0,94,0.00,,---,0.00,0.00,VWS V14.01,2013-01-06 02:00:00,
2013-01-05 21:01:00,71.4,70.0,30.23,WSW,252,1.0,3.0,94,0.00,,,0.00,0,weatherlink.com 1.10,2013-01-06 02:01:00,
2013-01-05 21:16:00,71.2,69.0,30.23,South,182,1.0,3.0,94,0.01,,,0.01,0,weatherlink.com 1.10,2013-01-06 02:16:00,
2013-01-05 21:30:00,70.7,68.9,30.23,WSW,248,2.0,7.0,94,0.01,,---,0.01,0.00,VWS V14.01,2013-01-06 02:30:00,
2013-01-05 21:31:00,70.6,69.0,30.23,SSE,162,3.0,7.0,94,0.02,,,0.02,0,weatherlink.com 1.10,2013-01-06 02:31:00,
2013-01-05 21:46:00,70.3,69.0,30.23,SSE,157,2.0,6.0,95,0.06,,,0.06,0,weatherlink.com 1.10,2013-01-06 02:46:00,
2013-01-05 22:00:00,69.9,68.4,30.23,SSE,158,2.0,6.0,95,0.09,,---,0.09,0.00,VWS V14.01,2013-01-06 03:00:00,
2013-01-05 22:01:00,69.8,68.0,30.23,SSE,152,2.0,3.0,95,0.09,,,0.09,0,weatherlink.com 1.10,2013-01-06 03:01:00,
2013-01-05 22:16:00,69.8,69.0,30.23,ESE,121,3.0,4.0,96,0.09,,,0.10,0,weatherlink.com 1.10,2013-01-06 03:16:00,
2013-01-05 22:30:00,69.8,68.6,30.22,SE,135,2.0,5.0,96,0.10,,---,0.10,0.00,VWS V14.01,2013-01-06 03:30:00,
2013-01-05 22:31:00,69.7,69.0,30.22,West,266,3.0,4.0,96,0.08,,,0.10,0,weatherlink.com 1.10,2013-01-06 03:31:00,
2013-01-05 22:46:00,69.5,68.0,30.22,West,261,4.0,5.0,95,0.03,,,0.10,0,weatherlink.com 1.10,2013-01-06 03:46:00,
2013-01-05 23:00:00,69.5,68.3,30.21,West,270,3.0,6.0,96,0.09,,---,0.10,0.00,VWS V14.01,2013-01-06 04:00:00,
2013-01-05 23:01:00,69.5,68.0,30.21,West,273,4.0,6.0,96,0.01,,,0.10,0,weatherlink.com 1.10,2013-01-06 04:01:00,
2013-01-05 23:16:00,69.5,68.0,30.21,WNW,296,3.0,5.0,95,0.00,,,0.10,0,weatherlink.com 1.10,2013-01-06 04:16:00,
2013-01-05 23:30:00,69.6,68.4,30.20,West,270,3.0,6.0,96,0.01,,---,0.10,0.00,VWS V14.01,2013-01-06 04:30:00,
2013-01-05 23:31:00,69.6,69.0,30.20,WSW,253,1.0,4.0,96,0.00,,,0.10,0,weatherlink.com 1.10,2013-01-06 04:31:00,
2013-01-05 23:46:00,69.6,69.0,30.21,WSW,244,1.0,3.0,96,0.00,,,0.10,0,weatherlink.com 1.10,2013-01-06 04:46:00,